sensor_id;sensor_type;location;lat;lon;timestamp;pressure;altitude;pressure_sealevel;temperature;humidity
54910;BME280;63189;51.240;9.964;2023-03-16T00:00:40;98348.00;;;-1.35;94.05
54910;BME280;63189;51.240;9.964;2023-03-16T00:03:07;98312.41;;;-1.64;94.23
54910;BME280;63189;51.240;9.964;2023-03-16T00:05:32;98359.88;;;-1.37;93.93
54910;BME280;63189;51.240;9.964;2023-03-16T00:07:58;98360.69;;;-1.38;93.84
54910;BME280;63189;51.240;9.964;2023-03-16T00:10:23;98358.09;;;-1.40;93.35
54910;BME280;63189;51.240;9.964;2023-03-16T00:12:52;98345.25;;;-1.43;93.79
54910;BME280;63189;51.240;9.964;2023-03-16T00:15:18;98351.22;;;-1.44;93.95
54910;BME280;63189;51.240;9.964;2023-03-16T00:17:43;98347.69;;;-1.48;94.61
54910;BME280;63189;51.240;9.964;2023-03-16T00:20:16;98339.75;;;-1.60;95.09
54910;BME280;63189;51.240;9.964;2023-03-16T00:22:42;98338.03;;;-1.61;94.78
54910;BME280;63189;51.240;9.964;2023-03-16T00:25:09;98353.19;;;-1.67;95.42
54910;BME280;63189;51.240;9.964;2023-03-16T00:27:36;98346.25;;;-1.72;95.62
54910;BME280;63189;51.240;9.964;2023-03-16T00:30:01;98344.47;;;-1.77;95.59
54910;BME280;63189;51.240;9.964;2023-03-16T00:32:35;98343.72;;;-1.72;95.87
54910;BME280;63189;51.240;9.964;2023-03-16T00:35:02;98351.47;;;-1.68;95.75
54910;BME280;63189;51.240;9.964;2023-03-16T00:37:28;98349.00;;;-1.65;96.04
54910;BME280;63189;51.240;9.964;2023-03-16T00:39:54;98339.47;;;-1.72;95.55
54910;BME280;63189;51.240;9.964;2023-03-16T00:42:21;98338.66;;;-1.69;96.30
54910;BME280;63189;51.240;9.964;2023-03-16T00:44:57;98332.75;;;-1.67;95.71
54910;BME280;63189;51.240;9.964;2023-03-16T00:47:25;98351.69;;;-1.59;95.52
54910;BME280;63189;51.240;9.964;2023-03-16T00:49:51;98355.16;;;-1.57;94.97
54910;BME280;63189;51.240;9.964;2023-03-16T00:52:16;98352.59;;;-1.57;94.45
54910;BME280;63189;51.240;9.964;2023-03-16T00:54:43;98347.44;;;-1.58;95.11
54910;BME280;63189;51.240;9.964;2023-03-16T00:57:11;98325.84;;;-1.71;94.94
54910;BME280;63189;51.240;9.964;2023-03-16T00:59:37;98341.41;;;-1.62;94.85
54910;BME280;63189;51.240;9.964;2023-03-16T01:02:04;98348.22;;;-1.62;94.65
54910;BME280;63189;51.240;9.964;2023-03-16T01:04:30;98335.38;;;-1.65;94.51
54910;BME280;63189;51.240;9.964;2023-03-16T01:06:56;98329.31;;;-1.69;94.68
54910;BME280;63189;51.240;9.964;2023-03-16T01:09:22;98336.94;;;-1.70;95.27
54910;BME280;63189;51.240;9.964;2023-03-16T01:11:47;98331.69;;;-1.77;94.95
54910;BME280;63189;51.240;9.964;2023-03-16T01:14:17;98327.47;;;-1.75;95.00
54910;BME280;63189;51.240;9.964;2023-03-16T01:16:43;98339.63;;;-1.66;95.24
54910;BME280;63189;51.240;9.964;2023-03-16T01:19:13;98342.09;;;-1.69;95.05
54910;BME280;63189;51.240;9.964;2023-03-16T01:21:39;98342.84;;;-1.73;95.56
54910;BME280;63189;51.240;9.964;2023-03-16T01:24:06;98342.69;;;-1.79;95.99
54910;BME280;63189;51.240;9.964;2023-03-16T01:26:32;98334.06;;;-1.84;95.78
54910;BME280;63189;51.240;9.964;2023-03-16T01:28:58;98341.19;;;-1.71;95.66
54910;BME280;63189;51.240;9.964;2023-03-16T01:31:23;98333.44;;;-1.74;95.48
54910;BME280;63189;51.240;9.964;2023-03-16T01:33:49;98346.47;;;-1.65;95.50
54910;BME280;63189;51.240;9.964;2023-03-16T01:36:16;98344.75;;;-1.64;95.65
54910;BME280;63189;51.240;9.964;2023-03-16T01:38:42;98322.41;;;-1.73;95.40
54910;BME280;63189;51.240;9.964;2023-03-16T01:41:08;98325.78;;;-1.74;95.45
54910;BME280;63189;51.240;9.964;2023-03-16T01:43:36;98331.03;;;-1.68;95.91
54910;BME280;63189;51.240;9.964;2023-03-16T01:51:13;98319.88;;;-1.71;95.02
54910;BME280;63189;51.240;9.964;2023-03-16T01:53:43;98316.41;;;-1.75;95.19
54910;BME280;63189;51.240;9.964;2023-03-16T01:56:11;98316.28;;;-1.78;94.88
54910;BME280;63189;51.240;9.964;2023-03-16T01:58:38;98320.50;;;-1.80;95.69
54910;BME280;63189;51.240;9.964;2023-03-16T02:01:05;98305.09;;;-1.85;96.14
54910;BME280;63189;51.240;9.964;2023-03-16T02:03:31;98281.69;;;-2.00;95.89
54910;BME280;63189;51.240;9.964;2023-03-16T02:08:34;98321.22;;;-1.87;96.67
54910;BME280;63189;51.240;9.964;2023-03-16T02:11:02;98302.34;;;-1.92;96.40
54910;BME280;63189;51.240;9.964;2023-03-16T02:13:29;98317.03;;;-1.84;96.24
54910;BME280;63189;51.240;9.964;2023-03-16T02:15:58;98308.56;;;-1.81;96.40
54910;BME280;63189;51.240;9.964;2023-03-16T02:18:23;98310.16;;;-1.86;95.67
54910;BME280;63189;51.240;9.964;2023-03-16T02:20:56;98301.44;;;-1.94;96.38
54910;BME280;63189;51.240;9.964;2023-03-16T02:23:26;98303.16;;;-1.93;96.21
54910;BME280;63189;51.240;9.964;2023-03-16T02:26:14;98310.16;;;-1.86;96.04
54910;BME280;63189;51.240;9.964;2023-03-16T02:31:31;98315.13;;;-1.92;96.61
54910;BME280;63189;51.240;9.964;2023-03-16T02:33:57;98321.13;;;-1.90;96.46
54910;BME280;63189;51.240;9.964;2023-03-16T02:36:23;98313.44;;;-1.90;97.27
54910;BME280;63189;51.240;9.964;2023-03-16T02:38:48;98288.47;;;-2.02;97.41
54910;BME280;63189;51.240;9.964;2023-03-16T02:41:16;98292.78;;;-1.99;97.68
54910;BME280;63189;51.240;9.964;2023-03-16T02:43:46;98297.25;;;-1.91;97.32
54910;BME280;63189;51.240;9.964;2023-03-16T02:46:12;98291.22;;;-1.94;97.40
54910;BME280;63189;51.240;9.964;2023-03-16T02:48:58;98307.28;;;-1.98;97.63
54910;BME280;63189;51.240;9.964;2023-03-16T02:51:27;98275.50;;;-2.10;97.38
54910;BME280;63189;51.240;9.964;2023-03-16T02:53:52;98283.03;;;-2.16;97.90
54910;BME280;63189;51.240;9.964;2023-03-16T02:56:17;98287.53;;;-2.06;97.56
54910;BME280;63189;51.240;9.964;2023-03-16T02:58:43;98278.88;;;-2.11;97.52
54910;BME280;63189;51.240;9.964;2023-03-16T03:01:08;98288.38;;;-2.07;97.37
54910;BME280;63189;51.240;9.964;2023-03-16T03:03:34;98295.13;;;-2.09;97.32
54910;BME280;63189;51.240;9.964;2023-03-16T03:06:00;98292.56;;;-2.09;97.70
54910;BME280;63189;51.240;9.964;2023-03-16T03:08:26;98272.63;;;-2.23;98.15
54910;BME280;63189;51.240;9.964;2023-03-16T03:10:51;98268.31;;;-2.26;99.54
54910;BME280;63189;51.240;9.964;2023-03-16T03:13:16;98261.31;;;-2.33;99.02
54910;BME280;63189;51.240;9.964;2023-03-16T03:15:42;98272.69;;;-2.20;99.87
54910;BME280;63189;51.240;9.964;2023-03-16T03:18:08;98275.38;;;-2.16;100.00
54910;BME280;63189;51.240;9.964;2023-03-16T03:20:33;98265.03;;;-2.20;99.37
54910;BME280;63189;51.240;9.964;2023-03-16T03:22:59;98281.34;;;-2.15;100.00
54910;BME280;63189;51.240;9.964;2023-03-16T03:25:24;98270.13;;;-2.20;99.12
54910;BME280;63189;51.240;9.964;2023-03-16T03:27:50;98280.53;;;-2.14;98.77
54910;BME280;63189;51.240;9.964;2023-03-16T03:30:20;98274.38;;;-2.21;99.60
54910;BME280;63189;51.240;9.964;2023-03-16T03:32:46;98281.28;;;-2.18;99.72
54910;BME280;63189;51.240;9.964;2023-03-16T03:35:12;98282.16;;;-2.18;99.48
54910;BME280;63189;51.240;9.964;2023-03-16T03:37:40;98264.09;;;-2.24;99.46
54910;BME280;63189;51.240;9.964;2023-03-16T03:40:08;98264.06;;;-2.25;99.36
54910;BME280;63189;51.240;9.964;2023-03-16T03:42:34;98252.13;;;-2.26;99.36
54910;BME280;63189;51.240;9.964;2023-03-16T03:45:00;98262.38;;;-2.25;99.14
54910;BME280;63189;51.240;9.964;2023-03-16T03:47:25;98264.91;;;-2.26;99.02
54910;BME280;63189;51.240;9.964;2023-03-16T03:49:51;98263.13;;;-2.29;99.76
54910;BME280;63189;51.240;9.964;2023-03-16T03:52:16;98268.16;;;-2.32;99.88
54910;BME280;63189;51.240;9.964;2023-03-16T03:54:42;98264.75;;;-2.31;100.00
54910;BME280;63189;51.240;9.964;2023-03-16T03:57:07;98256.94;;;-2.39;100.00
54910;BME280;63189;51.240;9.964;2023-03-16T03:59:33;98272.53;;;-2.28;100.00
54910;BME280;63189;51.240;9.964;2023-03-16T04:01:59;98273.25;;;-2.32;100.00
54910;BME280;63189;51.240;9.964;2023-03-16T04:04:24;98266.38;;;-2.35;100.00
54910;BME280;63189;51.240;9.964;2023-03-16T04:06:49;98256.13;;;-2.36;100.00
54910;BME280;63189;51.240;9.964;2023-03-16T04:09:16;98264.63;;;-2.37;99.76
54910;BME280;63189;51.240;9.964;2023-03-16T04:11:41;98270.63;;;-2.35;100.00
54910;BME280;63189;51.240;9.964;2023-03-16T04:14:06;98281.75;;;-2.33;100.00
54910;BME280;63189;51.240;9.964;2023-03-16T04:16:32;98274.88;;;-2.36;100.00
54910;BME280;63189;51.240;9.964;2023-03-16T04:18:58;98275.75;;;-2.35;100.00
54910;BME280;63189;51.240;9.964;2023-03-16T04:21:23;98256.66;;;-2.49;100.00
54910;BME280;63189;51.240;9.964;2023-03-16T04:23:49;98279.94;;;-2.37;100.00
54910;BME280;63189;51.240;9.964;2023-03-16T04:26:18;98269.59;;;-2.42;100.00
54910;BME280;63189;51.240;9.964;2023-03-16T04:28:44;98277.41;;;-2.37;100.00
54910;BME280;63189;51.240;9.964;2023-03-16T04:31:09;98279.84;;;-2.40;100.00
54910;BME280;63189;51.240;9.964;2023-03-16T04:33:36;98279.84;;;-2.40;100.00
54910;BME280;63189;51.240;9.964;2023-03-16T04:36:03;98274.66;;;-2.43;100.00
54910;BME280;63189;51.240;9.964;2023-03-16T04:38:29;98265.09;;;-2.52;100.00
54910;BME280;63189;51.240;9.964;2023-03-16T04:40:54;98269.56;;;-2.43;100.00
54910;BME280;63189;51.240;9.964;2023-03-16T04:43:19;98270.34;;;-2.46;100.00
54910;BME280;63189;51.240;9.964;2023-03-16T04:45:45;98261.03;;;-2.44;100.00
54910;BME280;63189;51.240;9.964;2023-03-16T04:48:10;98267.03;;;-2.42;100.00
54910;BME280;63189;51.240;9.964;2023-03-16T04:50:36;98255.84;;;-2.48;100.00
54910;BME280;63189;51.240;9.964;2023-03-16T04:53:02;98274.00;;;-2.36;100.00
54910;BME280;63189;51.240;9.964;2023-03-16T04:55:29;98256.72;;;-2.46;100.00
54910;BME280;63189;51.240;9.964;2023-03-16T04:57:55;98264.53;;;-2.40;100.00
54910;BME280;63189;51.240;9.964;2023-03-16T05:00:21;98272.19;;;-2.40;100.00
54910;BME280;63189;51.240;9.964;2023-03-16T05:02:49;98256.72;;;-2.46;100.00
54910;BME280;63189;51.240;9.964;2023-03-16T05:05:16;98257.47;;;-2.50;100.00
54910;BME280;63189;51.240;9.964;2023-03-16T05:07:42;98259.22;;;-2.49;100.00
54910;BME280;63189;51.240;9.964;2023-03-16T05:10:09;98272.09;;;-2.45;100.00
54910;BME280;63189;51.240;9.964;2023-03-16T05:12:35;98261.75;;;-2.49;100.00
54910;BME280;63189;51.240;9.964;2023-03-16T05:15:00;98264.22;;;-2.52;100.00
54910;BME280;63189;51.240;9.964;2023-03-16T05:17:26;98272.03;;;-2.46;100.00
54910;BME280;63189;51.240;9.964;2023-03-16T05:19:52;98262.75;;;-2.43;100.00
54910;BME280;63189;51.240;9.964;2023-03-16T05:22:17;98243.84;;;-2.51;100.00
54910;BME280;63189;51.240;9.964;2023-03-16T05:24:43;98256.81;;;-2.43;100.00
54910;BME280;63189;51.240;9.964;2023-03-16T05:27:08;98234.31;;;-2.58;100.00
54910;BME280;63189;51.240;9.964;2023-03-16T05:29:33;98243.03;;;-2.50;100.00
54910;BME280;63189;51.240;9.964;2023-03-16T05:31:59;98238.78;;;-2.49;100.00
54910;BME280;63189;51.240;9.964;2023-03-16T05:34:25;98256.75;;;-2.45;100.00
54910;BME280;63189;51.240;9.964;2023-03-16T05:36:50;98251.59;;;-2.48;100.00
54910;BME280;63189;51.240;9.964;2023-03-16T05:39:16;98218.75;;;-2.67;100.00
54910;BME280;63189;51.240;9.964;2023-03-16T05:41:41;98262.81;;;-2.41;100.00
54910;BME280;63189;51.240;9.964;2023-03-16T05:44:07;98274.75;;;-2.40;100.00
54910;BME280;63189;51.240;9.964;2023-03-16T05:46:32;98264.50;;;-2.42;100.00
54910;BME280;63189;51.240;9.964;2023-03-16T05:48:58;98264.47;;;-2.43;100.00
54910;BME280;63189;51.240;9.964;2023-03-16T05:51:23;98257.38;;;-2.53;100.00
54910;BME280;63189;51.240;9.964;2023-03-16T05:53:51;98270.53;;;-2.40;100.00
54910;BME280;63189;51.240;9.964;2023-03-16T05:56:17;98267.78;;;-2.47;100.00
54910;BME280;63189;51.240;9.964;2023-03-16T05:58:42;98272.03;;;-2.46;100.00
54910;BME280;63189;51.240;9.964;2023-03-16T06:01:08;98270.44;;;-2.43;100.00
54910;BME280;63189;51.240;9.964;2023-03-16T06:03:35;98259.16;;;-2.51;100.00
54910;BME280;63189;51.240;9.964;2023-03-16T06:06:00;98279.84;;;-2.40;100.00
54910;BME280;63189;51.240;9.964;2023-03-16T06:08:26;98265.22;;;-2.47;100.00
54910;BME280;63189;51.240;9.964;2023-03-16T06:10:51;98227.28;;;-2.67;100.00
54910;BME280;63189;51.240;9.964;2023-03-16T06:13:17;98240.22;;;-2.60;100.00
54910;BME280;63189;51.240;9.964;2023-03-16T06:15:42;98264.59;;;-2.39;100.00
54910;BME280;63189;51.240;9.964;2023-03-16T06:18:08;98270.63;;;-2.35;100.00
54910;BME280;63189;51.240;9.964;2023-03-16T06:20:33;98277.66;;;-2.26;100.00
54910;BME280;63189;51.240;9.964;2023-03-16T06:22:59;98261.38;;;-2.30;100.00
54910;BME280;63189;51.240;9.964;2023-03-16T06:25:24;98237.19;;;-2.44;100.00
54910;BME280;63189;51.240;9.964;2023-03-16T06:27:50;98256.44;;;-2.24;100.00
54910;BME280;63189;51.240;9.964;2023-03-16T06:30:16;98256.44;;;-2.24;100.00
54910;BME280;63189;51.240;9.964;2023-03-16T06:32:41;98264.38;;;-2.12;100.00
54910;BME280;63189;51.240;9.964;2023-03-16T06:35:08;98274.81;;;-2.04;100.00
54910;BME280;63189;51.240;9.964;2023-03-16T06:37:34;98276.59;;;-2.00;100.00
54910;BME280;63189;51.240;9.964;2023-03-16T06:39:59;98272.41;;;-1.98;100.00
54910;BME280;63189;51.240;9.964;2023-03-16T06:42:24;98265.63;;;-1.96;100.00
54910;BME280;63189;51.240;9.964;2023-03-16T06:44:50;98262.34;;;-1.90;100.00
54910;BME280;63189;51.240;9.964;2023-03-16T06:47:17;98246.91;;;-1.96;100.00
54910;BME280;63189;51.240;9.964;2023-03-16T06:49:42;98251.38;;;-1.86;100.00
54910;BME280;63189;51.240;9.964;2023-03-16T06:52:08;98252.34;;;-1.81;100.00
54910;BME280;63189;51.240;9.964;2023-03-16T06:54:35;98265.59;;;-1.60;100.00
54910;BME280;63189;51.240;9.964;2023-03-16T06:57:02;98278.53;;;-1.54;100.00
54910;BME280;63189;51.240;9.964;2023-03-16T06:59:27;98270.16;;;-1.47;100.00
54910;BME280;63189;51.240;9.964;2023-03-16T07:01:53;98271.97;;;-1.42;100.00
54910;BME280;63189;51.240;9.964;2023-03-16T07:04:18;98273.09;;;-1.30;100.00
54910;BME280;63189;51.240;9.964;2023-03-16T07:06:44;98269.81;;;-1.24;99.88
54910;BME280;63189;51.240;9.964;2023-03-16T07:09:09;98268.16;;;-1.21;99.92
54910;BME280;63189;51.240;9.964;2023-03-16T07:11:34;98266.59;;;-1.14;99.10
54910;BME280;63189;51.240;9.964;2023-03-16T07:14:00;98275.38;;;-1.03;98.99
54910;BME280;63189;51.240;9.964;2023-03-16T07:16:26;98276.41;;;-0.93;98.81
54910;BME280;63189;51.240;9.964;2023-03-16T07:18:51;98273.16;;;-0.84;98.13
54910;BME280;63189;51.240;9.964;2023-03-16T07:21:17;98269.16;;;-0.72;98.82
54910;BME280;63189;51.240;9.964;2023-03-16T07:23:43;98270.22;;;-0.59;98.35
54910;BME280;63189;51.240;9.964;2023-03-16T07:26:09;98286.00;;;-0.38;97.97
54910;BME280;63189;51.240;9.964;2023-03-16T07:28:36;98258.00;;;-0.27;96.00
54910;BME280;63189;51.240;9.964;2023-03-16T07:31:02;98279.00;;;0.04;95.55
54910;BME280;63189;51.240;9.964;2023-03-16T07:33:28;98267.34;;;0.22;93.49
54910;BME280;63189;51.240;9.964;2023-03-16T07:35:54;98255.59;;;0.38;93.66
54910;BME280;63189;51.240;9.964;2023-03-16T07:38:19;98265.09;;;0.44;91.75
54910;BME280;63189;51.240;9.964;2023-03-16T07:40:45;98274.66;;;0.55;93.23
54910;BME280;63189;51.240;9.964;2023-03-16T07:43:11;98272.09;;;0.55;90.64
54910;BME280;63189;51.240;9.964;2023-03-16T07:45:37;98229.97;;;0.40;90.94
54910;BME280;63189;51.240;9.964;2023-03-16T07:48:02;98268.81;;;0.64;90.58
54910;BME280;63189;51.240;9.964;2023-03-16T07:50:27;98265.44;;;0.68;89.54
54910;BME280;63189;51.240;9.964;2023-03-16T07:52:53;98268.97;;;0.75;90.69
54910;BME280;63189;51.240;9.964;2023-03-16T07:55:18;98263.91;;;0.82;89.61
54910;BME280;63189;51.240;9.964;2023-03-16T07:57:44;98272.66;;;0.97;88.48
54910;BME280;63189;51.240;9.964;2023-03-16T08:00:12;98264.22;;;1.07;89.96
54910;BME280;63189;51.240;9.964;2023-03-16T08:02:38;98257.50;;;1.18;89.22
54910;BME280;63189;51.240;9.964;2023-03-16T08:05:03;98269.72;;;1.37;88.78
54910;BME280;63189;51.240;9.964;2023-03-16T08:07:29;98274.03;;;1.43;87.50
54910;BME280;63189;51.240;9.964;2023-03-16T08:09:57;98245.75;;;1.41;88.31
54910;BME280;63189;51.240;9.964;2023-03-16T08:12:22;98267.41;;;1.63;88.14
54910;BME280;63189;51.240;9.964;2023-03-16T08:14:47;98272.66;;;1.76;85.71
54910;BME280;63189;51.240;9.964;2023-03-16T08:17:13;98272.03;;;1.99;86.95
54910;BME280;63189;51.240;9.964;2023-03-16T08:19:38;98275.56;;;2.11;87.11
54910;BME280;63189;51.240;9.964;2023-03-16T08:22:05;98251.63;;;2.21;86.17
54910;BME280;63189;51.240;9.964;2023-03-16T08:24:32;98272.28;;;2.30;83.76
54910;BME280;63189;51.240;9.964;2023-03-16T08:26:58;98268.94;;;2.45;83.43
54910;BME280;63189;51.240;9.964;2023-03-16T08:29:24;98262.13;;;2.56;83.93
54910;BME280;63189;51.240;9.964;2023-03-16T08:31:52;98277.03;;;3.19;82.80
54910;BME280;63189;51.240;9.964;2023-03-16T08:34:19;98269.41;;;3.47;81.20
54910;BME280;63189;51.240;9.964;2023-03-16T08:36:44;98273.78;;;3.77;79.85
54910;BME280;63189;51.240;9.964;2023-03-16T08:39:10;98255.72;;;3.95;78.64
54910;BME280;63189;51.240;9.964;2023-03-16T08:41:35;98272.09;;;4.20;78.26
54910;BME280;63189;51.240;9.964;2023-03-16T08:44:00;98266.06;;;4.50;76.07
54910;BME280;63189;51.240;9.964;2023-03-16T08:46:27;98278.06;;;4.63;74.29
54910;BME280;63189;51.240;9.964;2023-03-16T08:48:53;98265.94;;;4.88;74.72
54910;BME280;63189;51.240;9.964;2023-03-16T08:51:20;98274.47;;;5.21;73.88
54910;BME280;63189;51.240;9.964;2023-03-16T08:53:45;98271.03;;;5.16;72.92
54910;BME280;63189;51.240;9.964;2023-03-16T08:56:12;98269.31;;;5.21;70.83
54910;BME280;63189;51.240;9.964;2023-03-16T08:58:39;98268.25;;;5.59;70.93
54910;BME280;63189;51.240;9.964;2023-03-16T09:01:10;98273.47;;;5.46;68.79
54910;BME280;63189;51.240;9.964;2023-03-16T09:03:36;98259.59;;;5.64;69.68
54910;BME280;63189;51.240;9.964;2023-03-16T09:06:04;98261.06;;;6.03;70.92
54910;BME280;63189;51.240;9.964;2023-03-16T09:08:30;98262.63;;;6.26;68.23
54910;BME280;63189;51.240;9.964;2023-03-16T09:11:04;98271.91;;;6.51;68.77
54910;BME280;63189;51.240;9.964;2023-03-16T09:13:32;98263.97;;;6.65;68.26
54910;BME280;63189;51.240;9.964;2023-03-16T09:15:57;98239.19;;;6.41;66.68
54910;BME280;63189;51.240;9.964;2023-03-16T09:18:23;98254.59;;;6.53;66.46
54910;BME280;63189;51.240;9.964;2023-03-16T09:20:51;98262.16;;;6.75;65.20
54910;BME280;63189;51.240;9.964;2023-03-16T09:23:16;98259.47;;;6.85;65.10
54910;BME280;63189;51.240;9.964;2023-03-16T09:25:43;98268.69;;;7.11;65.67
54910;BME280;63189;51.240;9.964;2023-03-16T09:28:09;98262.28;;;7.38;64.88
54910;BME280;63189;51.240;9.964;2023-03-16T09:30:35;98251.13;;;7.33;62.36
54910;BME280;63189;51.240;9.964;2023-03-16T09:33:01;98251.22;;;7.25;62.99
54910;BME280;63189;51.240;9.964;2023-03-16T09:35:26;98242.28;;;7.47;63.81
54910;BME280;63189;51.240;9.964;2023-03-16T09:37:52;98247.16;;;7.69;63.45
54910;BME280;63189;51.240;9.964;2023-03-16T09:40:27;98257.97;;;7.38;57.57
54910;BME280;63189;51.240;9.964;2023-03-16T09:45:54;98260.75;;;7.24;59.44
54910;BME280;63189;51.240;9.964;2023-03-16T09:48:26;98258.97;;;7.30;61.67
54910;BME280;63189;51.240;9.964;2023-03-16T09:50:55;98233.03;;;7.27;60.01
54910;BME280;63189;51.240;9.964;2023-03-16T09:53:29;98262.56;;;7.16;58.26
54910;BME280;63189;51.240;9.964;2023-03-16T09:56:04;98258.41;;;7.03;56.94
54910;BME280;63189;51.240;9.964;2023-03-16T09:58:32;98242.31;;;6.74;56.99
54910;BME280;63189;51.240;9.964;2023-03-16T10:01:00;98250.91;;;6.79;56.51
54910;BME280;63189;51.240;9.964;2023-03-16T10:06:02;98239.75;;;6.71;60.33
54910;BME280;63189;51.240;9.964;2023-03-16T10:08:50;98226.38;;;7.07;63.04
54910;BME280;63189;51.240;9.964;2023-03-16T10:11:25;98238.31;;;7.20;61.18
54910;BME280;63189;51.240;9.964;2023-03-16T10:16:46;98218.97;;;7.46;55.68
54910;BME280;63189;51.240;9.964;2023-03-16T10:19:17;98226.34;;;7.10;57.35
54910;BME280;63189;51.240;9.964;2023-03-16T10:21:45;98240.97;;;7.14;57.10
54910;BME280;63189;51.240;9.964;2023-03-16T10:27:15;98220.44;;;6.98;58.61
54910;BME280;63189;51.240;9.964;2023-03-16T10:29:43;98215.09;;;7.11;59.24
54910;BME280;63189;51.240;9.964;2023-03-16T10:32:17;98219.03;;;7.40;60.05
54910;BME280;63189;51.240;9.964;2023-03-16T10:34:47;98220.91;;;7.29;57.15
54910;BME280;63189;51.240;9.964;2023-03-16T10:37:17;98216.44;;;7.41;58.90
54910;BME280;63189;51.240;9.964;2023-03-16T10:39:42;98214.53;;;7.54;60.94
54910;BME280;63189;51.240;9.964;2023-03-16T10:42:19;98212.88;;;7.47;59.99
54910;BME280;63189;51.240;9.964;2023-03-16T10:44:46;98205.31;;;7.33;58.08
54910;BME280;63189;51.240;9.964;2023-03-16T10:47:23;98196.72;;;7.30;56.55
54910;BME280;63189;51.240;9.964;2023-03-16T10:49:51;98209.53;;;7.39;58.82
54910;BME280;63189;51.240;9.964;2023-03-16T10:52:33;98211.31;;;7.35;59.00
54910;BME280;63189;51.240;9.964;2023-03-16T10:55:05;98192.19;;;7.44;57.26
54910;BME280;63189;51.240;9.964;2023-03-16T10:57:33;98204.91;;;7.62;57.20
54910;BME280;63189;51.240;9.964;2023-03-16T11:00:05;98192.66;;;7.72;59.15
54910;BME280;63189;51.240;9.964;2023-03-16T11:02:33;98201.53;;;7.56;57.55
54910;BME280;63189;51.240;9.964;2023-03-16T11:05:31;98194.84;;;7.38;57.54
54910;BME280;63189;51.240;9.964;2023-03-16T11:08:20;98184.44;;;7.39;59.28
54910;BME280;63189;51.240;9.964;2023-03-16T11:10:59;98184.94;;;7.66;59.83
54910;BME280;63189;51.240;9.964;2023-03-16T11:13:31;98185.75;;;7.69;57.24
54910;BME280;63189;51.240;9.964;2023-03-16T11:16:05;98170.03;;;7.78;61.76
54910;BME280;63189;51.240;9.964;2023-03-16T11:18:43;98173.00;;;8.08;59.03
54910;BME280;63189;51.240;9.964;2023-03-16T11:21:15;98180.69;;;8.16;55.55
54910;BME280;63189;51.240;9.964;2023-03-16T11:23:47;98175.47;;;8.16;58.04
54910;BME280;63189;51.240;9.964;2023-03-16T11:26:36;98180.38;;;8.32;57.48
54910;BME280;63189;51.240;9.964;2023-03-16T11:29:11;98179.78;;;8.17;54.63
54910;BME280;63189;51.240;9.964;2023-03-16T11:31:44;98166.84;;;8.15;57.97
54910;BME280;63189;51.240;9.964;2023-03-16T11:34:33;98152.88;;;8.21;60.44
54910;BME280;63189;51.240;9.964;2023-03-16T11:37:29;98184.53;;;8.44;57.13
54910;BME280;63189;51.240;9.964;2023-03-16T11:43:15;98176.09;;;8.30;59.98
54910;BME280;63189;51.240;9.964;2023-03-16T11:50:56;98151.78;;;8.32;58.76
54910;BME280;63189;51.240;9.964;2023-03-16T11:53:34;98154.97;;;8.50;59.29
54910;BME280;63189;51.240;9.964;2023-03-16T12:07:38;98120.22;;;8.54;54.04
54910;BME280;63189;51.240;9.964;2023-03-16T12:15:46;98114.56;;;8.32;51.03
54910;BME280;63189;51.240;9.964;2023-03-16T12:18:26;98123.41;;;8.22;51.42
54910;BME280;63189;51.240;9.964;2023-03-16T12:21:11;98121.91;;;8.10;52.56
54910;BME280;63189;51.240;9.964;2023-03-16T12:23:51;98118.59;;;8.00;52.36
54910;BME280;63189;51.240;9.964;2023-03-16T12:26:18;98104.16;;;7.86;51.49
54910;BME280;63189;51.240;9.964;2023-03-16T12:28:46;98125.75;;;7.88;52.25
54910;BME280;63189;51.240;9.964;2023-03-16T12:31:35;98121.53;;;7.80;50.44
54910;BME280;63189;51.240;9.964;2023-03-16T12:37:18;98059.97;;;7.38;50.85
54910;BME280;63189;51.240;9.964;2023-03-16T12:45:03;98094.53;;;7.41;50.87
54910;BME280;63189;51.240;9.964;2023-03-16T12:50:14;98093.13;;;7.17;48.96
54910;BME280;63189;51.240;9.964;2023-03-16T12:52:43;98072.78;;;6.91;47.41
54910;BME280;63189;51.240;9.964;2023-03-16T12:57:39;98068.53;;;6.86;49.60
54910;BME280;63189;51.240;9.964;2023-03-16T13:00:06;98066.06;;;6.77;48.66
54910;BME280;63189;51.240;9.964;2023-03-16T13:02:36;98065.44;;;6.59;48.03
54910;BME280;63189;51.240;9.964;2023-03-16T13:05:14;98071.63;;;6.49;49.93
54910;BME280;63189;51.240;9.964;2023-03-16T13:07:49;98062.09;;;6.51;50.86
54910;BME280;63189;51.240;9.964;2023-03-16T13:10:17;98055.19;;;6.52;51.94
54910;BME280;63189;51.240;9.964;2023-03-16T13:12:45;98061.09;;;6.61;53.97
54910;BME280;63189;51.240;9.964;2023-03-16T13:18:03;98034.22;;;6.70;54.51
54910;BME280;63189;51.240;9.964;2023-03-16T13:20:31;98059.91;;;6.85;53.49
54910;BME280;63189;51.240;9.964;2023-03-16T13:25:44;98046.00;;;6.91;55.39
54910;BME280;63189;51.240;9.964;2023-03-16T13:28:12;98058.72;;;7.06;54.99
54910;BME280;63189;51.240;9.964;2023-03-16T13:30:44;98032.91;;;7.00;53.03
54910;BME280;63189;51.240;9.964;2023-03-16T13:33:23;98044.09;;;7.04;54.01
54910;BME280;63189;51.240;9.964;2023-03-16T13:35:52;98024.19;;;7.06;55.48
54910;BME280;63189;51.240;9.964;2023-03-16T13:38:22;98043.03;;;7.15;54.08
54910;BME280;63189;51.240;9.964;2023-03-16T13:40:53;98027.59;;;7.09;54.68
54910;BME280;63189;51.240;9.964;2023-03-16T13:43:26;98028.44;;;7.08;55.65
54910;BME280;63189;51.240;9.964;2023-03-16T13:45:53;98025.88;;;7.10;53.73
54910;BME280;63189;51.240;9.964;2023-03-16T13:48:18;98022.59;;;6.95;50.43
54910;BME280;63189;51.240;9.964;2023-03-16T13:50:55;98025.97;;;7.02;50.59
54910;BME280;63189;51.240;9.964;2023-03-16T13:53:28;98023.38;;;7.02;48.82
54910;BME280;63189;51.240;9.964;2023-03-16T13:55:56;98011.09;;;7.13;48.03
54910;BME280;63189;51.240;9.964;2023-03-16T13:58:25;98017.06;;;7.18;49.50
54910;BME280;63189;51.240;9.964;2023-03-16T14:03:44;98000.03;;;7.02;50.63
54910;BME280;63189;51.240;9.964;2023-03-16T14:06:26;98006.84;;;7.09;48.05
54910;BME280;63189;51.240;9.964;2023-03-16T14:08:56;97999.06;;;7.11;49.08
54910;BME280;63189;51.240;9.964;2023-03-16T14:11:24;98006.06;;;7.04;49.40
54910;BME280;63189;51.240;9.964;2023-03-16T14:13:51;98012.22;;;6.97;46.54
54910;BME280;63189;51.240;9.964;2023-03-16T14:16:21;98016.72;;;6.84;44.27